createdAt,value
2023-03-08T00:02:12.022Z,4.00
2023-03-08T00:04:41.129Z,2.70
2023-03-08T00:07:09.936Z,5.40
2023-03-08T00:09:38.700Z,2.67
2023-03-08T00:12:07.376Z,2.93
2023-03-08T00:14:35.072Z,2.23
2023-03-08T00:17:03.709Z,2.00
2023-03-08T00:19:31.709Z,6.20
2023-03-08T00:22:01.275Z,2.03
2023-03-08T00:24:28.940Z,2.73
2023-03-08T00:26:56.582Z,4.93
2023-03-08T00:29:25.039Z,3.30
2023-03-08T00:31:53.228Z,3.57
2023-03-08T00:34:21.086Z,3.43
2023-03-08T00:36:49.285Z,5.43
2023-03-08T00:39:19.997Z,4.37
2023-03-08T00:41:48.442Z,3.30
2023-03-08T00:44:16.073Z,4.70
2023-03-08T00:46:44.381Z,5.17
2023-03-08T00:49:14.772Z,4.33
2023-03-08T00:51:42.486Z,4.27
2023-03-08T00:54:10.833Z,4.80
2023-03-08T00:56:40.567Z,4.43
2023-03-08T00:59:08.573Z,5.10
2023-03-08T01:01:36.392Z,4.97
2023-03-08T01:04:04.454Z,5.70
2023-03-08T01:06:32.093Z,3.80
2023-03-08T01:08:59.783Z,4.47
2023-03-08T01:11:28.535Z,3.83
2023-03-08T01:13:57.656Z,4.60
2023-03-08T01:16:27.868Z,4.33
2023-03-08T01:18:56.180Z,4.60
2023-03-08T01:21:24.310Z,4.70
2023-03-08T01:23:52.372Z,4.23
2023-03-08T01:26:21.349Z,5.30
2023-03-08T01:28:49.463Z,5.47
2023-03-08T01:31:20.379Z,7.30
2023-03-08T01:33:48.786Z,4.10
2023-03-08T01:36:18.620Z,4.30
2023-03-08T01:38:47.032Z,5.03
2023-03-08T01:41:17.261Z,6.47
2023-03-08T01:43:45.489Z,4.47
2023-03-08T01:46:21.078Z,4.53
2023-03-08T01:48:56.160Z,5.20
2023-03-08T01:51:29.975Z,5.83
2023-03-08T01:53:58.981Z,5.33
2023-03-08T01:56:27.675Z,5.87
2023-03-08T01:58:58.572Z,5.10
2023-03-08T02:01:28.184Z,6.40
2023-03-08T02:03:58.631Z,5.03
2023-03-08T02:06:26.618Z,5.10
2023-03-08T02:08:54.343Z,7.57
2023-03-08T02:11:23.038Z,7.07
2023-03-08T02:13:52.902Z,5.40
2023-03-08T02:16:21.654Z,8.87
2023-03-08T02:18:52.731Z,5.73
2023-03-08T02:21:22.686Z,6.63
2023-03-08T02:23:51.757Z,6.43
2023-03-08T02:26:19.905Z,7.07
2023-03-08T02:28:47.979Z,6.93
2023-03-08T02:31:18.029Z,7.90
2023-03-08T02:33:45.998Z,8.50
2023-03-08T02:36:13.914Z,8.00
2023-03-08T02:38:41.623Z,8.03
2023-03-08T02:41:10.661Z,9.90
2023-03-08T02:43:38.366Z,8.00
2023-03-08T02:46:07.573Z,8.23
2023-03-08T02:48:35.225Z,7.43
2023-03-08T02:51:03.013Z,7.03
2023-03-08T02:53:30.882Z,9.93
2023-03-08T02:56:00.196Z,9.07
2023-03-08T02:58:29.324Z,9.47
2023-03-08T03:00:57.433Z,10.23
2023-03-08T03:03:25.228Z,8.13
2023-03-08T03:05:53.278Z,8.97
2023-03-08T03:08:27.589Z,7.53
2023-03-08T03:10:56.480Z,9.30
2023-03-08T03:13:24.179Z,7.40
2023-03-08T03:15:54.417Z,8.97
2023-03-08T03:18:22.134Z,8.13
2023-03-08T03:20:49.806Z,11.17
2023-03-08T03:23:17.534Z,8.57
2023-03-08T03:25:51.751Z,10.57
2023-03-08T03:28:21.390Z,7.37
2023-03-08T03:30:49.858Z,6.80
2023-03-08T03:33:19.054Z,8.43
2023-03-08T03:35:46.989Z,9.00
2023-03-08T03:38:14.832Z,8.33
2023-03-08T03:40:45.416Z,9.17
2023-03-08T03:43:13.250Z,8.60
2023-03-08T03:45:41.137Z,7.87
2023-03-08T03:48:08.839Z,10.13
2023-03-08T03:50:38.146Z,11.37
2023-03-08T03:53:10.970Z,11.93
2023-03-08T03:55:39.092Z,10.73
2023-03-08T03:58:07.110Z,13.47
2023-03-08T04:00:35.775Z,10.33
2023-03-08T04:03:17.410Z,9.43
2023-03-08T04:05:46.787Z,8.30
2023-03-08T04:08:14.953Z,12.23
2023-03-08T04:10:43.806Z,9.00
2023-03-08T04:13:12.453Z,9.40
2023-03-08T04:15:41.309Z,10.83
2023-03-08T04:18:12.240Z,10.60
2023-03-08T04:20:46.814Z,10.47
2023-03-08T04:23:15.924Z,9.37
2023-03-08T04:25:48.063Z,14.73
2023-03-08T04:28:17.131Z,9.67
2023-03-08T04:30:46.519Z,10.90
2023-03-08T04:33:14.905Z,9.97
2023-03-08T04:35:48.909Z,9.20
2023-03-08T04:38:17.867Z,11.37
2023-03-08T04:41:05.366Z,12.30
2023-03-08T04:43:46.773Z,10.13
2023-03-08T04:46:15.747Z,11.63
2023-03-08T04:48:43.474Z,13.20
2023-03-08T04:51:15.838Z,12.50
2023-03-08T04:53:45.324Z,11.87
2023-03-08T04:56:15.435Z,11.07
2023-03-08T04:58:43.396Z,11.80
2023-03-08T05:01:13.345Z,13.23
2023-03-08T05:03:43.065Z,14.03
2023-03-08T05:06:12.301Z,13.73
2023-03-08T05:08:41.429Z,14.57
2023-03-08T05:11:09.464Z,14.37
2023-03-08T05:13:39.703Z,16.17
2023-03-08T05:16:09.667Z,14.07
2023-03-08T05:18:37.739Z,13.70
2023-03-08T05:21:07.977Z,11.70
2023-03-08T05:23:36.589Z,11.77
2023-03-08T05:26:06.542Z,11.43
2023-03-08T05:28:36.991Z,12.37
2023-03-08T05:31:06.856Z,10.37
2023-03-08T05:33:37.644Z,10.43
2023-03-08T05:36:07.886Z,13.57
2023-03-08T05:38:36.114Z,9.67
2023-03-08T05:41:09.867Z,10.93
2023-03-08T05:43:38.066Z,12.13
2023-03-08T05:46:09.621Z,14.37
2023-03-08T05:48:39.103Z,11.07
2023-03-08T05:51:08.150Z,11.20
2023-03-08T05:53:36.645Z,9.33
2023-03-08T05:56:11.446Z,15.17
2023-03-08T05:58:44.752Z,9.67
2023-03-08T06:01:16.707Z,10.40
2023-03-08T06:03:45.036Z,9.13
2023-03-08T06:06:12.940Z,8.20
2023-03-08T06:08:41.968Z,9.00
2023-03-08T06:11:11.427Z,9.87
2023-03-08T06:13:40.127Z,8.37
2023-03-08T06:16:08.824Z,8.20
2023-03-08T06:18:37.998Z,8.30
2023-03-08T06:21:09.899Z,11.83
2023-03-08T06:23:39.228Z,7.30
2023-03-08T06:26:08.318Z,8.13
2023-03-08T06:28:40.200Z,8.77
2023-03-08T06:31:10.169Z,8.40
2023-03-08T06:33:37.890Z,7.80
2023-03-08T06:36:08.178Z,7.47
2023-03-08T06:38:38.322Z,9.00
2023-03-08T06:41:07.073Z,7.83
2023-03-08T06:43:35.655Z,8.00
2023-03-08T06:46:06.437Z,8.37
2023-03-08T06:48:34.775Z,9.00
2023-03-08T06:51:03.000Z,7.27
2023-03-08T06:53:31.194Z,9.03
2023-03-08T06:56:04.468Z,7.57
2023-03-08T06:58:34.575Z,7.80
2023-03-08T07:01:04.280Z,7.43
2023-03-08T07:03:34.252Z,8.27
2023-03-08T07:06:02.662Z,7.63
2023-03-08T07:08:31.117Z,8.73
2023-03-08T07:10:59.874Z,7.90
2023-03-08T07:13:28.975Z,8.50
2023-03-08T07:15:57.370Z,7.47
2023-03-08T07:18:25.396Z,7.60
2023-03-08T07:20:55.917Z,8.20
2023-03-08T07:23:23.709Z,10.03
2023-03-08T07:25:51.489Z,7.97
2023-03-08T07:28:20.968Z,7.53
2023-03-08T07:30:49.489Z,8.10
2023-03-08T07:33:18.556Z,7.47
2023-03-08T07:35:46.298Z,7.27
2023-03-08T07:38:15.752Z,7.70
2023-03-08T07:40:43.590Z,7.93
2023-03-08T07:43:11.469Z,8.57
2023-03-08T07:46:01.639Z,7.83
2023-03-08T07:48:29.610Z,8.67
2023-03-08T07:51:02.264Z,7.63
2023-03-08T07:53:31.922Z,7.70
2023-03-08T07:56:00.566Z,8.30
2023-03-08T07:58:29.139Z,9.77
2023-03-08T08:00:57.258Z,7.90
2023-03-08T08:03:25.146Z,9.93
2023-03-08T08:05:53.351Z,8.23
2023-03-08T08:08:21.047Z,8.63
2023-03-08T08:10:50.353Z,6.90
2023-03-08T08:13:18.431Z,7.63
2023-03-08T08:15:46.105Z,5.97
2023-03-08T08:18:14.274Z,6.13
2023-03-08T08:20:42.155Z,6.33
2023-03-08T08:23:09.870Z,7.33
2023-03-08T08:25:40.063Z,6.87
2023-03-08T08:28:09.398Z,6.10
2023-03-08T08:30:37.183Z,6.17
2023-03-08T08:33:06.096Z,6.13
2023-03-08T08:35:42.676Z,6.33
2023-03-08T08:38:10.977Z,5.57
2023-03-08T08:40:39.193Z,6.03
2023-03-08T08:43:06.974Z,7.80
2023-03-08T08:45:36.033Z,11.53
2023-03-08T08:48:03.803Z,19.10
2023-03-08T08:50:31.971Z,9.50
2023-03-08T08:52:59.639Z,11.00
2023-03-08T08:55:27.429Z,9.40
2023-03-08T08:57:55.681Z,10.27
2023-03-08T09:00:23.732Z,14.73
2023-03-08T09:02:52.907Z,8.00
2023-03-08T09:05:20.740Z,9.80
2023-03-08T09:07:49.530Z,14.13
2023-03-08T09:10:17.535Z,5.87
2023-03-08T09:12:45.280Z,5.40
2023-03-08T09:15:13.629Z,5.67
2023-03-08T09:17:41.485Z,7.03
2023-03-08T09:20:12.494Z,5.83
2023-03-08T09:22:40.996Z,5.70
2023-03-08T09:25:09.539Z,5.73
2023-03-08T09:27:37.387Z,6.17
2023-03-08T09:30:06.044Z,4.70
2023-03-08T09:32:34.946Z,4.83
2023-03-08T09:35:04.847Z,5.03
2023-03-08T09:37:34.071Z,5.10
2023-03-08T09:40:01.772Z,5.50
2023-03-08T09:42:32.475Z,6.70
2023-03-08T09:45:08.384Z,6.07
2023-03-08T09:47:42.188Z,5.40
2023-03-08T09:50:18.515Z,5.73
2023-03-08T09:52:50.461Z,7.20
2023-03-08T09:55:26.120Z,6.30
2023-03-08T09:57:56.107Z,6.27
2023-03-08T10:00:28.817Z,6.23
2023-03-08T10:03:06.283Z,6.77
2023-03-08T10:05:38.150Z,6.97
2023-03-08T10:08:12.431Z,5.33
2023-03-08T10:10:50.388Z,6.33
2023-03-08T10:13:33.767Z,5.97
2023-03-08T10:16:08.454Z,7.73
2023-03-08T10:18:41.694Z,5.87
2023-03-08T10:21:12.428Z,6.97
2023-03-08T10:23:42.295Z,7.28
2023-03-08T10:26:12.599Z,9.10
2023-03-08T10:28:40.353Z,7.23
2023-03-08T10:31:20.191Z,8.50
2023-03-08T10:33:49.323Z,15.33
2023-03-08T10:36:21.674Z,10.87
2023-03-08T10:39:11.039Z,8.33
2023-03-08T10:41:42.310Z,9.03
2023-03-08T10:44:17.926Z,8.90
2023-03-08T10:46:50.098Z,11.67
2023-03-08T10:49:19.708Z,11.80
2023-03-08T10:51:55.592Z,10.77
2023-03-08T10:54:25.056Z,10.77
2023-03-08T10:56:55.570Z,12.90
2023-03-08T10:59:29.476Z,9.40
2023-03-08T11:02:00.042Z,16.42
2023-03-08T11:04:29.560Z,18.97
2023-03-08T11:06:57.500Z,14.15
2023-03-08T11:09:28.280Z,14.20
2023-03-08T11:11:56.371Z,15.93
2023-03-08T11:14:24.737Z,18.85
2023-03-08T11:16:58.923Z,17.17
2023-03-08T11:19:33.587Z,16.80
2023-03-08T11:22:06.537Z,19.13
2023-03-08T11:24:52.222Z,14.35
2023-03-08T11:27:31.358Z,16.50
2023-03-08T11:30:12.884Z,19.33
2023-03-08T11:32:49.112Z,20.38
2023-03-08T11:35:24.359Z,15.88
2023-03-08T11:37:57.695Z,16.75
2023-03-08T11:40:29.775Z,14.68
2023-03-08T11:43:09.685Z,14.52
2023-03-08T11:45:42.223Z,13.50
2023-03-08T11:48:24.922Z,15.38
2023-03-08T11:50:54.900Z,15.75
2023-03-08T11:53:30.502Z,16.75
2023-03-08T11:56:18.923Z,16.80
2023-03-08T11:58:49.535Z,15.95
2023-03-08T12:01:20.656Z,17.65
2023-03-08T12:03:52.616Z,13.32
2023-03-08T12:06:29.319Z,16.13
2023-03-08T12:09:01.679Z,16.88
2023-03-08T12:11:33.808Z,14.70
2023-03-08T12:14:05.601Z,13.07
2023-03-08T12:16:39.074Z,12.38
2023-03-08T12:19:15.436Z,14.05
2023-03-08T12:21:49.025Z,8.68
2023-03-08T12:24:31.473Z,11.05
2023-03-08T12:27:02.748Z,12.73
2023-03-08T12:29:35.869Z,9.60
2023-03-08T12:32:04.700Z,12.07
2023-03-08T12:34:38.476Z,11.07
2023-03-08T12:37:06.331Z,10.75
2023-03-08T12:39:35.927Z,9.73
2023-03-08T12:42:16.857Z,9.35
2023-03-08T12:44:45.520Z,10.20
2023-03-08T12:47:22.052Z,9.68
2023-03-08T12:49:51.796Z,8.82
2023-03-08T12:52:31.626Z,11.93
2023-03-08T12:55:01.413Z,9.88
2023-03-08T12:57:32.590Z,8.32
2023-03-08T13:00:01.946Z,9.05
2023-03-08T13:02:31.919Z,9.65
2023-03-08T13:05:19.122Z,8.65
2023-03-08T13:07:56.923Z,9.75
2023-03-08T13:10:27.294Z,8.68
2023-03-08T13:13:35.230Z,9.05
2023-03-08T13:16:07.232Z,7.93
2023-03-08T13:18:36.703Z,10.30
2023-03-08T13:21:16.628Z,11.07
2023-03-08T13:23:49.095Z,8.25
2023-03-08T13:26:47.708Z,7.53
2023-03-08T13:29:20.579Z,8.75
2023-03-08T13:31:49.223Z,6.50
2023-03-08T13:34:29.245Z,8.35
2023-03-08T13:36:56.987Z,7.85
2023-03-08T13:39:26.572Z,6.20
2023-03-08T13:41:55.202Z,8.02
2023-03-08T13:44:25.796Z,6.68
2023-03-08T13:46:56.598Z,6.25
2023-03-08T13:49:26.558Z,8.07
2023-03-08T13:51:57.906Z,6.97
2023-03-08T13:54:29.684Z,7.75
2023-03-08T13:56:57.723Z,8.85
2023-03-08T13:59:27.503Z,6.63
2023-03-08T14:01:55.736Z,6.53
2023-03-08T14:04:26.175Z,8.43
2023-03-08T14:06:54.963Z,7.38
2023-03-08T14:09:23.242Z,8.05
2023-03-08T14:11:57.944Z,7.20
2023-03-08T14:14:30.896Z,9.15
2023-03-08T14:16:59.150Z,5.93
2023-03-08T14:19:29.103Z,6.28
2023-03-08T14:21:59.550Z,6.68
2023-03-08T14:24:28.458Z,6.05
2023-03-08T14:27:00.318Z,6.95
2023-03-08T14:29:31.568Z,6.65
2023-03-08T14:32:03.723Z,6.03
2023-03-08T14:34:33.927Z,6.20
2023-03-08T14:37:05.683Z,5.97
2023-03-08T14:39:35.489Z,5.57
2023-03-08T14:42:12.180Z,6.97
2023-03-08T14:44:41.211Z,6.13
2023-03-08T14:47:10.825Z,6.55
2023-03-08T14:49:38.643Z,5.25
2023-03-08T14:52:08.578Z,5.75
2023-03-08T14:54:38.486Z,5.93
2023-03-08T14:57:17.253Z,5.95
2023-03-08T14:59:46.623Z,6.43
2023-03-08T15:02:15.660Z,8.05
2023-03-08T15:04:44.646Z,7.18
2023-03-08T15:07:18.028Z,7.82
2023-03-08T15:09:46.013Z,7.10
2023-03-08T15:12:14.265Z,7.38
2023-03-08T15:14:42.184Z,8.68
2023-03-08T15:17:11.260Z,8.20
2023-03-08T15:19:38.886Z,10.52
2023-03-08T15:22:07.245Z,8.48
2023-03-08T15:24:35.077Z,9.95
2023-03-08T15:27:02.885Z,8.95
2023-03-08T15:29:33.014Z,11.35
2023-03-08T15:32:01.168Z,9.25
2023-03-08T15:34:30.184Z,8.67
2023-03-08T15:36:57.899Z,8.75
2023-03-08T15:39:25.626Z,9.07
2023-03-08T15:41:53.367Z,8.48
2023-03-08T15:44:21.070Z,8.85
2023-03-08T15:46:50.880Z,8.30
2023-03-08T15:49:20.031Z,9.43
2023-03-08T15:51:49.125Z,10.48
2023-03-08T15:54:16.726Z,21.73
2023-03-08T15:56:44.786Z,12.45
2023-03-08T15:59:12.462Z,13.48
2023-03-08T16:01:40.239Z,9.10
2023-03-08T16:04:07.947Z,10.02
2023-03-08T16:06:35.707Z,13.13
2023-03-08T16:09:04.891Z,11.93
2023-03-08T16:11:33.176Z,10.93
2023-03-08T16:14:01.293Z,11.00
2023-03-08T16:16:42.576Z,10.30
2023-03-08T16:19:12.375Z,13.35
2023-03-08T16:21:40.033Z,13.05
2023-03-08T16:24:09.168Z,11.65
2023-03-08T16:26:37.172Z,13.30
2023-03-08T16:29:04.861Z,12.03
2023-03-08T16:31:33.566Z,12.13
2023-03-08T16:34:03.146Z,13.20
2023-03-08T16:36:31.246Z,12.27
2023-03-08T16:38:58.908Z,16.20
2023-03-08T16:41:29.966Z,16.23
2023-03-08T16:43:58.392Z,16.13
2023-03-08T16:46:26.117Z,13.95
2023-03-08T16:48:54.984Z,14.60
2023-03-08T16:51:24.243Z,14.45
2023-03-08T16:53:52.090Z,15.87
2023-03-08T16:56:20.558Z,15.57
2023-03-08T16:58:49.620Z,15.03
2023-03-08T17:01:19.621Z,14.38
2023-03-08T17:03:47.724Z,14.80
2023-03-08T17:06:17.716Z,13.10
2023-03-08T17:08:45.738Z,17.23
2023-03-08T17:11:17.696Z,14.37
2023-03-08T17:13:50.882Z,15.50
2023-03-08T17:16:19.274Z,15.33
2023-03-08T17:18:47.656Z,15.90
2023-03-08T17:21:15.598Z,16.87
2023-03-08T17:23:43.667Z,14.00
2023-03-08T17:26:13.229Z,19.77
2023-03-08T17:28:41.856Z,17.63
2023-03-08T17:31:12.719Z,19.30
2023-03-08T17:33:40.894Z,18.77
2023-03-08T17:36:10.702Z,15.53
2023-03-08T17:38:38.680Z,14.10
2023-03-08T17:41:07.754Z,11.57
2023-03-08T17:43:35.681Z,17.00
2023-03-08T17:46:05.585Z,15.43
2023-03-08T17:48:35.365Z,14.50
2023-03-08T17:51:03.960Z,14.50
2023-03-08T17:53:31.927Z,17.37
2023-03-08T17:56:00.171Z,15.40
2023-03-08T17:58:28.191Z,18.03
2023-03-08T18:00:56.018Z,18.00
2023-03-08T18:03:24.418Z,15.00
2023-03-08T18:05:53.920Z,16.97
2023-03-08T18:08:21.556Z,17.60
2023-03-08T18:10:49.173Z,15.60
2023-03-08T18:13:16.805Z,16.13
2023-03-08T18:15:44.510Z,13.87
2023-03-08T18:18:12.573Z,14.37
2023-03-08T18:20:40.430Z,18.63
2023-03-08T18:23:09.482Z,19.40
2023-03-08T18:25:38.829Z,13.40
2023-03-08T18:28:06.494Z,15.27
2023-03-08T18:30:34.227Z,12.43
2023-03-08T18:33:01.955Z,14.27
2023-03-08T18:35:32.586Z,16.53
2023-03-08T18:38:01.334Z,12.98
2023-03-08T18:40:30.981Z,14.73
2023-03-08T18:42:58.684Z,14.87
2023-03-08T18:45:26.306Z,13.67
2023-03-08T18:47:53.993Z,12.33
2023-03-08T18:50:22.304Z,16.90
2023-03-08T18:52:50.479Z,13.73
2023-03-08T18:55:18.444Z,14.30
2023-03-08T18:57:47.480Z,13.97
2023-03-08T19:00:16.684Z,13.70
2023-03-08T19:02:44.352Z,15.83
2023-03-08T19:05:12.336Z,16.30
2023-03-08T19:07:41.058Z,13.77
2023-03-08T19:10:14.649Z,14.20
2023-03-08T19:12:43.625Z,12.40
2023-03-08T19:15:12.805Z,14.20
2023-03-08T19:17:40.846Z,18.17
2023-03-08T19:20:10.807Z,15.27
2023-03-08T19:22:39.596Z,16.57
2023-03-08T19:25:08.669Z,14.30
2023-03-08T19:27:37.075Z,12.70
2023-03-08T19:30:05.245Z,15.90
2023-03-08T19:32:36.105Z,13.83
2023-03-08T19:35:04.334Z,16.73
2023-03-08T19:37:32.330Z,13.93
2023-03-08T19:40:01.438Z,14.40
2023-03-08T19:42:29.383Z,19.10
2023-03-08T19:44:57.092Z,16.60
2023-03-08T19:47:24.781Z,15.00
2023-03-08T19:49:54.207Z,14.00
2023-03-08T19:52:21.897Z,14.13
2023-03-08T19:54:49.549Z,13.17
2023-03-08T19:57:17.299Z,15.90
2023-03-08T19:59:44.973Z,14.30
2023-03-08T20:02:13.577Z,14.80
2023-03-08T20:04:44.789Z,15.57
2023-03-08T20:07:13.834Z,15.87
2023-03-08T20:09:42.669Z,16.60
2023-03-08T20:12:10.732Z,16.23
2023-03-08T20:14:38.448Z,17.20
2023-03-08T20:17:06.159Z,18.70
2023-03-08T20:19:34.271Z,14.77
2023-03-08T20:22:01.999Z,15.73
2023-03-08T20:24:31.138Z,14.70
2023-03-08T20:26:59.227Z,15.53
2023-03-08T20:29:26.942Z,16.10
2023-03-08T20:31:58.039Z,14.27
2023-03-08T20:34:27.065Z,16.40
2023-03-08T20:36:54.756Z,16.33
2023-03-08T20:39:22.600Z,17.40
2023-03-08T20:41:53.751Z,15.83
2023-03-08T20:44:21.435Z,14.33
2023-03-08T20:46:49.688Z,14.20
2023-03-08T20:49:17.953Z,17.00
2023-03-08T20:51:45.696Z,16.13
2023-03-08T20:54:13.428Z,15.73
2023-03-08T20:56:41.516Z,17.60
2023-03-08T20:59:11.572Z,16.00
2023-03-08T21:01:41.890Z,15.50
2023-03-08T21:04:09.627Z,16.70
2023-03-08T21:06:37.445Z,15.33
2023-03-08T21:09:05.381Z,15.43
2023-03-08T21:11:34.152Z,15.40
2023-03-08T21:14:02.348Z,17.40
2023-03-08T21:16:31.800Z,15.80
2023-03-08T21:19:00.918Z,15.23
2023-03-08T21:21:32.334Z,12.80
2023-03-08T21:24:01.872Z,13.40
2023-03-08T21:26:32.504Z,13.80
2023-03-08T21:29:02.124Z,14.67
2023-03-08T21:31:32.138Z,14.63
2023-03-08T21:33:59.922Z,14.57
2023-03-08T21:36:27.728Z,13.60
2023-03-08T21:38:57.190Z,14.83
2023-03-08T21:41:28.757Z,14.53
2023-03-08T21:43:57.337Z,11.80
2023-03-08T21:46:25.683Z,12.57
2023-03-08T21:48:55.285Z,13.33
2023-03-08T21:51:23.286Z,13.23
2023-03-08T21:53:51.084Z,12.77
2023-03-08T21:56:19.555Z,13.73
2023-03-08T21:58:47.369Z,11.97
2023-03-08T22:01:20.158Z,11.93
2023-03-08T22:03:48.064Z,15.33
2023-03-08T22:06:17.369Z,14.23
2023-03-08T22:08:45.055Z,12.10
2023-03-08T22:11:12.901Z,15.10
2023-03-08T22:13:40.711Z,12.63
2023-03-08T22:16:08.965Z,12.73
2023-03-08T22:18:36.703Z,12.43
2023-03-08T22:21:05.281Z,13.37
2023-03-08T22:23:34.286Z,12.33
2023-03-08T22:26:02.066Z,10.80
2023-03-08T22:28:29.699Z,10.03
2023-03-08T22:30:57.662Z,12.80
2023-03-08T22:33:25.323Z,11.73
2023-03-08T22:35:53.005Z,11.67
2023-03-08T22:38:21.156Z,11.27
2023-03-08T22:40:50.275Z,11.90
2023-03-08T22:43:17.986Z,12.57
2023-03-08T22:45:45.623Z,13.27
2023-03-08T22:48:13.259Z,14.10
2023-03-08T22:50:41.089Z,12.60
2023-03-08T22:53:08.824Z,12.97
2023-03-08T22:55:36.443Z,10.93
2023-03-08T22:58:05.398Z,12.70
2023-03-08T23:00:33.057Z,13.87
2023-03-08T23:03:00.965Z,10.30
2023-03-08T23:05:28.711Z,13.13
2023-03-08T23:07:56.562Z,11.53
2023-03-08T23:10:24.260Z,10.23
2023-03-08T23:12:52.430Z,8.70
2023-03-08T23:15:21.513Z,13.23
2023-03-08T23:17:49.273Z,10.17
2023-03-08T23:20:19.824Z,9.37
2023-03-08T23:22:48.169Z,11.27
2023-03-08T23:25:16.330Z,10.83
2023-03-08T23:27:44.399Z,9.43
2023-03-08T23:30:15.248Z,8.40
2023-03-08T23:32:44.317Z,9.60
2023-03-08T23:35:12.776Z,8.70
2023-03-08T23:37:40.558Z,9.10
2023-03-08T23:40:10.870Z,8.93
2023-03-08T23:42:39.459Z,9.30
2023-03-08T23:45:08.947Z,8.50
2023-03-08T23:47:36.967Z,7.83
2023-03-08T23:50:07.016Z,8.17
2023-03-08T23:52:34.686Z,8.53
2023-03-08T23:55:02.598Z,8.63
2023-03-08T23:57:30.262Z,9.77
2023-03-08T23:59:59.223Z,9.20
